createdAt,value
2023-05-12T04:31:33.076Z,47.3026
2023-05-12T04:32:35.159Z,47.2873
2023-05-12T04:33:37.153Z,47.2566
2023-05-12T04:34:39.186Z,47.4594
2023-05-12T04:35:41.258Z,49.9391
2023-05-12T04:36:43.287Z,50.2426
2023-05-12T04:37:45.327Z,50.8708
2023-05-12T04:38:47.402Z,50.2591
2023-05-12T04:39:49.423Z,49.7840
2023-05-12T04:40:51.469Z,49.6121
2023-05-12T04:41:53.516Z,48.5197
2023-05-12T04:42:55.575Z,47.9728
2023-05-12T04:44:00.395Z,47.8192
2023-05-12T04:44:59.642Z,47.7007
2023-05-12T04:46:01.751Z,47.5751
2023-05-12T04:47:03.741Z,47.5024
2023-05-12T04:48:05.829Z,47.4243
2023-05-12T04:49:07.860Z,47.2941
2023-05-12T04:50:09.881Z,47.1976
2023-05-12T04:51:11.938Z,47.1381
2023-05-12T04:52:13.975Z,47.0324
2023-05-12T04:53:16.026Z,46.9575
2023-05-12T04:54:18.086Z,46.8741
2023-05-12T04:55:20.361Z,46.8123
2023-05-12T04:56:22.194Z,46.7588
2023-05-12T04:57:24.223Z,46.7016
2023-05-12T04:58:26.294Z,46.6389
2023-05-12T04:59:28.343Z,46.5929
2023-05-12T05:00:30.369Z,46.5456
2023-05-12T05:01:32.533Z,46.4888
2023-05-12T05:02:34.603Z,46.4362
2023-05-12T05:03:36.611Z,46.3909
2023-05-12T05:04:38.596Z,46.3817
2023-05-12T05:05:40.621Z,46.3624
2023-05-12T05:06:42.694Z,46.3589
2023-05-12T05:07:44.719Z,46.3229
2023-05-12T05:08:46.759Z,46.3278
2023-05-12T05:09:48.810Z,46.2787
2023-05-12T05:10:50.923Z,46.2249
2023-05-12T05:11:52.937Z,46.1998
2023-05-12T05:12:54.998Z,46.1816
2023-05-12T05:13:56.994Z,46.1586
2023-05-12T05:14:59.036Z,46.1258
2023-05-12T05:16:01.141Z,46.0933
2023-05-12T05:17:03.134Z,46.0832
2023-05-12T05:18:05.212Z,46.0792
2023-05-12T05:19:19.211Z,46.0706
2023-05-12T05:20:11.631Z,46.0813
2023-05-12T05:21:11.561Z,46.0499
2023-05-12T05:22:13.406Z,46.0021
2023-05-12T05:23:15.451Z,45.9363
2023-05-12T05:24:17.518Z,45.9243
2023-05-12T05:25:19.696Z,45.9158
2023-05-12T05:26:21.592Z,45.8895
2023-05-12T05:27:23.662Z,45.8856
2023-05-12T05:28:25.671Z,45.8802
2023-05-12T05:29:27.722Z,45.8643
2023-05-12T05:30:29.796Z,45.8823
2023-05-12T05:31:31.909Z,45.8744
2023-05-12T05:32:33.875Z,45.8766
2023-05-12T05:33:35.913Z,45.9051
2023-05-12T05:34:38.041Z,45.8932
2023-05-12T05:35:40.031Z,45.8947
2023-05-12T05:36:42.098Z,45.8795
2023-05-12T05:37:44.136Z,45.8472
2023-05-12T05:38:46.183Z,45.8049
2023-05-12T05:39:48.237Z,45.7821
2023-05-12T05:40:53.466Z,45.8008
2023-05-12T05:41:52.337Z,45.7629
2023-05-12T05:42:54.447Z,45.7906
2023-05-12T05:43:56.413Z,45.7745
2023-05-12T05:44:58.468Z,45.7538
2023-05-12T05:46:00.531Z,45.7483
2023-05-12T05:47:02.601Z,45.7886
2023-05-12T05:48:04.683Z,45.8532
2023-05-12T05:49:06.646Z,45.9057
2023-05-12T05:50:08.741Z,45.9636
2023-05-12T05:51:10.815Z,46.1321
2023-05-12T05:52:12.830Z,46.0912
2023-05-12T05:53:15.193Z,46.2039
2023-05-12T05:54:16.906Z,46.3273
2023-05-12T05:55:19.345Z,46.3119
2023-05-12T05:56:21.030Z,46.4953
2023-05-12T05:57:23.074Z,46.5118
2023-05-12T05:58:25.105Z,46.5986
2023-05-12T05:59:27.162Z,46.7575
2023-05-12T06:00:29.228Z,46.8998
2023-05-12T06:01:31.266Z,47.0059
2023-05-12T06:02:33.619Z,46.9392
2023-05-12T06:03:35.430Z,47.0333
2023-05-12T06:04:37.415Z,47.0328
2023-05-12T06:05:39.495Z,47.2238
2023-05-12T06:06:41.601Z,47.2941
2023-05-12T06:07:43.562Z,47.4092
2023-05-12T06:08:45.580Z,47.4702
2023-05-12T06:09:47.754Z,48.2765
2023-05-12T06:10:49.708Z,48.5673
2023-05-12T06:11:51.727Z,48.3287
2023-05-12T06:12:53.802Z,48.6914
2023-05-12T06:13:55.857Z,48.8219
2023-05-12T06:14:58.057Z,48.8521
2023-05-12T06:15:59.952Z,48.8220
2023-05-12T06:17:02.037Z,48.6136
2023-05-12T06:18:04.132Z,48.7165
2023-05-12T06:19:06.132Z,48.7342
2023-05-12T06:20:08.134Z,48.7461
2023-05-12T06:21:10.323Z,48.9645
2023-05-12T06:22:12.251Z,48.7849
2023-05-12T06:23:14.290Z,48.7763
2023-05-12T06:24:16.336Z,49.0599
2023-05-12T06:25:18.579Z,49.0391
2023-05-12T06:26:20.413Z,49.1158
2023-05-12T06:27:22.538Z,49.0632
2023-05-12T06:28:24.540Z,48.9896
2023-05-12T06:29:26.617Z,49.1686
2023-05-12T06:30:28.656Z,49.5314
2023-05-12T06:31:30.716Z,49.6430
2023-05-12T06:32:32.803Z,49.9434
2023-05-12T06:33:34.893Z,50.2361
2023-05-12T06:34:36.831Z,49.9659
2023-05-12T06:35:38.921Z,49.6952
2023-05-12T06:36:40.904Z,50.0503
2023-05-12T06:37:42.937Z,49.8221
2023-05-12T06:38:45.224Z,49.7143
2023-05-12T06:39:47.047Z,49.8752
2023-05-12T06:40:49.130Z,49.8030
2023-05-12T06:41:51.144Z,49.9035
2023-05-12T06:42:53.211Z,49.3085
2023-05-12T06:43:55.383Z,49.0414
2023-05-12T06:44:57.303Z,48.7651
2023-05-12T06:45:59.353Z,48.7095
2023-05-12T06:47:01.363Z,48.4191
2023-05-12T06:48:03.497Z,48.5142
2023-05-12T06:49:05.578Z,48.5123
2023-05-12T06:50:07.523Z,48.8168
2023-05-12T06:51:09.571Z,48.7892
2023-05-12T06:52:11.605Z,48.8109
2023-05-12T06:53:13.694Z,48.5991
2023-05-12T06:54:15.693Z,48.6626
2023-05-12T06:55:17.915Z,49.1024
2023-05-12T06:56:19.797Z,48.9345
2023-05-12T06:57:21.813Z,48.6502
2023-05-12T06:58:23.933Z,48.4970
2023-05-12T06:59:25.921Z,48.3983
2023-05-12T07:00:27.967Z,48.2920
2023-05-12T07:01:30.106Z,48.3047
2023-05-12T07:02:32.170Z,48.2858
2023-05-12T07:03:34.118Z,48.3447
2023-05-12T07:04:36.153Z,48.5690
2023-05-12T07:05:38.250Z,48.5549
2023-05-12T07:06:40.270Z,48.5330
2023-05-12T07:07:42.262Z,48.4519
2023-05-12T07:08:44.338Z,48.4946
2023-05-12T07:09:46.371Z,48.5533
2023-05-12T07:10:48.441Z,48.6657
2023-05-12T07:11:50.453Z,48.7798
2023-05-12T07:12:52.478Z,48.6627
2023-05-12T07:13:54.566Z,48.6498
2023-05-12T07:14:56.602Z,48.5769
2023-05-12T07:15:58.669Z,48.5834
2023-05-12T07:17:00.688Z,48.4131
2023-05-12T07:18:02.764Z,48.5675
2023-05-12T07:19:04.850Z,48.6000
2023-05-12T07:20:06.812Z,48.4912
2023-05-12T07:21:08.874Z,48.4341
2023-05-12T07:22:10.903Z,48.2432
2023-05-12T07:23:12.986Z,48.2671
2023-05-12T07:24:15.050Z,48.5362
2023-05-12T07:25:17.119Z,48.4654
2023-05-12T07:26:19.117Z,48.2415
2023-05-12T07:27:21.145Z,48.3353
2023-05-12T07:28:23.203Z,48.2499
2023-05-12T07:29:25.234Z,48.2923
2023-05-12T07:30:27.282Z,48.3895
2023-05-12T07:31:29.377Z,48.0476
2023-05-12T07:32:31.401Z,47.9463
2023-05-12T07:33:33.430Z,48.0811
2023-05-12T07:34:35.482Z,48.0215
2023-05-12T07:35:37.525Z,47.9785
2023-05-12T07:36:39.654Z,48.1532
2023-05-12T07:37:41.624Z,48.4201
2023-05-12T07:38:43.670Z,48.3352
2023-05-12T07:39:45.744Z,48.2810
2023-05-12T07:40:47.765Z,48.0657
2023-05-12T07:41:49.812Z,47.8073
2023-05-12T07:42:51.874Z,47.4948
2023-05-12T07:43:53.882Z,47.7155
2023-05-12T07:44:55.905Z,47.5834
2023-05-12T07:45:57.971Z,47.4208
2023-05-12T07:47:00.081Z,47.6093
2023-05-12T07:48:02.130Z,47.8884
2023-05-12T07:49:04.110Z,47.9431
2023-05-12T07:50:06.151Z,47.8182
2023-05-12T07:51:08.196Z,47.8506
2023-05-12T07:52:10.330Z,47.7435
2023-05-12T07:53:12.293Z,47.8432
2023-05-12T07:54:14.351Z,47.9500
2023-05-12T07:55:16.386Z,48.0462
2023-05-12T07:56:18.430Z,47.9181
2023-05-12T07:57:20.467Z,47.9190
2023-05-12T07:58:22.535Z,47.9365
2023-05-12T07:59:24.584Z,47.7183
2023-05-12T08:00:26.618Z,47.4302
2023-05-12T08:01:28.671Z,47.4226
2023-05-12T08:02:30.835Z,47.5461
2023-05-12T08:03:32.829Z,47.9950
2023-05-12T08:04:34.877Z,47.9146
2023-05-12T08:05:36.953Z,48.0889
2023-05-12T08:06:38.895Z,47.7719
2023-05-12T08:07:41.201Z,47.7747
2023-05-12T08:08:43.051Z,47.6899
2023-05-12T08:09:45.020Z,48.0552
2023-05-12T08:10:47.084Z,48.0988
2023-05-12T08:11:50.828Z,48.3046
2023-05-12T08:12:51.180Z,48.2189
2023-05-12T08:13:53.199Z,48.1678
2023-05-12T08:14:55.266Z,48.2025
2023-05-12T08:15:57.289Z,48.2657
2023-05-12T08:16:59.530Z,47.8263
2023-05-12T08:18:01.571Z,47.8329
2023-05-12T08:19:03.476Z,47.8414
2023-05-12T08:20:05.526Z,47.6131
2023-05-12T08:21:07.535Z,47.5302
2023-05-12T08:22:09.568Z,47.3918
2023-05-12T08:23:11.633Z,47.2925
2023-05-12T08:24:13.749Z,47.4779
2023-05-12T08:25:15.717Z,47.7720
2023-05-12T08:26:17.761Z,47.8290
2023-05-12T08:27:19.845Z,47.9827
2023-05-12T08:28:21.873Z,48.2100
2023-05-12T08:29:23.929Z,48.1944
2023-05-12T08:30:25.977Z,48.0539
2023-05-12T08:31:28.079Z,47.9273
2023-05-12T08:32:30.107Z,47.7872
2023-05-12T08:33:32.116Z,47.7067
2023-05-12T08:34:34.232Z,47.9914
2023-05-12T08:35:36.273Z,48.0075
2023-05-12T08:36:38.317Z,47.8635
2023-05-12T08:37:40.384Z,48.0954
2023-05-12T08:38:42.452Z,48.0139
2023-05-12T08:39:44.564Z,47.8495
2023-05-12T08:40:46.616Z,47.8422
2023-05-12T08:41:48.582Z,48.0140
2023-05-12T08:42:50.619Z,47.7571
2023-05-12T08:43:52.701Z,47.6404
2023-05-12T08:44:54.799Z,47.5818
2023-05-12T08:45:56.815Z,47.4887
2023-05-12T08:46:58.856Z,47.4063
2023-05-12T08:48:00.938Z,47.5577
2023-05-12T08:49:02.928Z,47.6847
2023-05-12T08:50:05.002Z,47.9747
2023-05-12T08:51:06.995Z,48.1740
2023-05-12T08:52:09.068Z,48.1978
2023-05-12T08:53:11.139Z,48.3505
2023-05-12T08:54:13.190Z,48.3769
2023-05-12T08:55:15.405Z,48.1851
2023-05-12T08:57:19.317Z,47.8078
2023-05-12T08:58:27.797Z,47.7340
2023-05-12T08:59:23.417Z,47.6977
2023-05-12T09:00:25.513Z,47.7631
2023-05-12T09:01:27.487Z,48.0238
2023-05-12T09:02:37.570Z,48.1574
2023-05-12T09:03:31.603Z,48.1464
2023-05-12T09:04:33.688Z,48.2708
2023-05-12T09:05:35.665Z,48.3299
2023-05-12T09:06:37.738Z,48.4212
2023-05-12T09:07:39.780Z,48.3255
2023-05-12T09:08:41.847Z,48.4601
2023-05-12T09:09:43.867Z,48.3026
2023-05-12T09:10:45.963Z,48.6330
2023-05-12T09:11:47.951Z,48.6536
2023-05-12T09:12:50.018Z,48.5459
2023-05-12T09:13:52.061Z,48.8626
2023-05-12T09:14:54.089Z,48.9446
2023-05-12T09:15:56.196Z,48.6045
2023-05-12T09:16:58.201Z,48.5561
2023-05-12T09:18:00.292Z,48.4339
2023-05-12T09:19:03.146Z,48.5710
2023-05-12T09:20:04.338Z,48.7049
2023-05-12T09:21:06.432Z,48.6109
2023-05-12T09:22:08.455Z,48.5877
2023-05-12T09:23:10.512Z,48.5564
2023-05-12T09:24:12.524Z,48.3968
2023-05-12T09:25:14.922Z,48.2956
2023-05-12T09:26:16.654Z,48.2459
2023-05-12T09:27:18.677Z,48.1726
2023-05-12T09:28:20.730Z,48.2338
2023-05-12T09:29:31.319Z,48.1000
2023-05-12T09:30:24.810Z,48.2509
2023-05-12T09:31:26.921Z,48.4874
2023-05-12T09:32:28.964Z,48.0085
2023-05-12T09:33:30.996Z,47.8348
2023-05-12T09:34:33.029Z,47.9926
2023-05-12T09:35:35.078Z,47.6274
2023-05-12T09:36:37.130Z,47.5768
2023-05-12T09:37:39.311Z,47.1670
2023-05-12T09:38:41.235Z,47.1522
2023-05-12T09:39:43.259Z,47.0431
2023-05-12T09:40:45.419Z,47.0129
2023-05-12T09:41:47.365Z,46.9885
2023-05-12T09:42:49.426Z,47.2070
2023-05-12T09:43:51.480Z,47.1695
2023-05-12T09:44:53.518Z,47.0564
2023-05-12T09:45:55.633Z,47.3274
2023-05-12T09:46:57.598Z,47.4775
2023-05-12T09:47:59.727Z,47.3857
2023-05-12T09:49:01.711Z,47.1109
2023-05-12T09:50:03.747Z,47.0733
2023-05-12T09:51:06.053Z,46.7431
2023-05-12T09:52:07.830Z,46.6196
2023-05-12T09:53:09.953Z,46.7879
2023-05-12T09:54:11.924Z,46.9409
2023-05-12T09:55:14.005Z,46.7247
2023-05-12T09:56:16.040Z,46.4052
2023-05-12T09:57:18.087Z,46.2991
2023-05-12T09:58:20.098Z,46.3921
2023-05-12T09:59:22.176Z,46.6624
2023-05-12T10:01:26.332Z,46.1673
2023-05-12T10:02:28.427Z,46.4975
2023-05-12T10:03:30.413Z,46.5802
2023-05-12T10:04:32.508Z,46.5466
2023-05-12T10:05:34.434Z,46.6566
2023-05-12T10:06:36.491Z,46.5076
2023-05-12T10:07:38.554Z,46.4210
2023-05-12T10:08:40.602Z,46.7233
2023-05-12T10:09:42.660Z,46.8753
2023-05-12T10:10:44.655Z,47.0312
2023-05-12T10:11:46.711Z,47.0044
2023-05-12T10:12:48.784Z,46.5116
2023-05-12T10:13:50.810Z,46.5097
2023-05-12T10:14:52.896Z,46.3388
2023-05-12T10:15:54.928Z,46.1753
2023-05-12T10:16:57.028Z,46.2505
2023-05-12T10:17:59.022Z,45.9205
2023-05-12T10:19:01.083Z,46.1360
2023-05-12T10:20:03.140Z,46.2139
2023-05-12T10:21:05.187Z,46.0094
2023-05-12T10:22:07.211Z,46.3882
2023-05-12T10:23:09.345Z,45.7032
2023-05-12T10:24:11.284Z,45.7867
2023-05-12T10:25:13.348Z,45.6371
2023-05-12T10:26:15.401Z,44.8187
2023-05-12T10:27:17.466Z,45.2520
2023-05-12T10:28:19.482Z,45.3178
2023-05-12T10:29:21.544Z,44.9895
2023-05-12T10:30:23.614Z,44.9412
2023-05-12T10:31:25.673Z,45.2285
2023-05-12T10:32:27.691Z,45.3946
2023-05-12T10:33:29.717Z,45.0567
2023-05-12T10:34:31.850Z,44.5540
2023-05-12T10:35:33.862Z,44.7881
2023-05-12T10:36:35.862Z,44.3849
2023-05-12T10:37:38.599Z,44.2647
2023-05-12T10:38:39.988Z,44.3624
2023-05-12T10:39:42.083Z,44.5742
2023-05-12T10:40:44.059Z,44.7760
2023-05-12T10:41:46.209Z,44.8120
2023-05-12T10:42:48.186Z,44.5888
2023-05-12T10:43:50.251Z,44.2438
2023-05-12T10:44:52.308Z,44.6263
2023-05-12T10:45:54.509Z,44.7566
2023-05-12T10:46:56.367Z,44.6943
2023-05-12T10:47:58.466Z,44.8090
2023-05-12T10:49:00.490Z,44.6551
2023-05-12T10:50:02.579Z,44.4086
2023-05-12T10:51:04.594Z,44.0426
2023-05-12T10:52:06.656Z,44.4013
2023-05-12T10:53:09.965Z,44.5557
2023-05-12T10:54:10.747Z,44.7528
2023-05-12T10:55:12.816Z,45.1018
2023-05-12T10:56:15.034Z,44.8879
2023-05-12T10:57:18.908Z,45.0806
2023-05-12T10:58:19.313Z,45.1316
2023-05-12T10:59:21.405Z,44.8983
2023-05-12T11:00:23.808Z,44.6440
2023-05-12T11:01:25.305Z,44.2379
2023-05-12T11:02:27.917Z,43.9917
2023-05-12T11:03:30.374Z,43.9424
2023-05-12T11:04:31.359Z,43.5888
2023-05-12T11:05:33.529Z,43.5258
2023-05-12T11:06:36.337Z,43.3024
2023-05-12T11:07:37.800Z,43.6581
2023-05-12T11:08:40.186Z,43.4229
2023-05-12T11:09:52.400Z,43.3841
2023-05-12T11:10:43.575Z,43.3194
2023-05-12T11:11:45.864Z,43.2001
2023-05-12T11:12:47.625Z,43.1988
2023-05-12T11:13:49.708Z,43.0930
2023-05-12T11:14:51.740Z,42.7605
2023-05-12T11:15:53.835Z,42.7159
2023-05-12T11:16:55.912Z,42.6154
2023-05-12T11:17:57.930Z,42.2998
2023-05-12T11:19:00.029Z,42.2308
2023-05-12T11:20:02.156Z,42.5707
2023-05-12T11:21:04.066Z,42.6888
2023-05-12T11:22:06.068Z,42.9264
2023-05-12T11:23:08.133Z,43.2136
2023-05-12T11:24:13.161Z,43.5901
2023-05-12T11:25:12.915Z,43.8740
2023-05-12T11:26:14.290Z,44.2337
2023-05-12T11:27:16.323Z,44.1953
2023-05-12T11:28:18.384Z,44.2686
2023-05-12T11:29:20.425Z,44.2236
2023-05-12T11:30:22.482Z,44.2860
2023-05-12T11:31:24.583Z,44.4946
2023-05-12T11:32:26.732Z,44.6335
2023-05-12T11:33:28.763Z,44.1543
2023-05-12T11:34:30.706Z,44.1075
2023-05-12T11:35:32.796Z,44.3930
2023-05-12T11:36:34.760Z,44.5553
2023-05-12T11:37:36.890Z,45.0071
2023-05-12T11:38:38.865Z,44.9887
2023-05-12T11:39:40.923Z,44.9344
2023-05-12T11:40:42.944Z,44.9655
2023-05-12T11:41:45.002Z,44.9083
2023-05-12T11:42:47.206Z,44.5477
2023-05-12T11:43:49.118Z,44.7033
2023-05-12T11:44:51.155Z,44.6086
2023-05-12T11:45:53.251Z,44.4754
2023-05-12T11:46:55.256Z,44.4401
2023-05-12T11:47:59.272Z,44.0801
2023-05-12T11:48:59.427Z,44.1019
2023-05-12T11:50:01.379Z,43.9898
2023-05-12T11:51:03.456Z,43.7974
2023-05-12T11:52:05.491Z,43.9640
2023-05-12T11:53:07.517Z,44.0318
2023-05-12T11:54:09.610Z,43.9536
2023-05-12T11:55:11.658Z,43.5148
2023-05-12T11:56:13.692Z,43.1578
2023-05-12T11:57:15.746Z,42.4208
2023-05-12T11:58:17.794Z,41.8566
2023-05-12T11:59:19.901Z,41.5990
2023-05-12T12:00:21.884Z,41.7342
2023-05-12T12:01:23.939Z,41.2014
2023-05-12T12:02:26.020Z,41.2778
2023-05-12T12:03:28.139Z,40.9785
2023-05-12T12:04:30.187Z,41.6491
2023-05-12T12:05:32.111Z,41.6629
2023-05-12T12:06:34.169Z,41.3383
2023-05-12T12:07:36.224Z,40.4638
2023-05-12T12:08:38.354Z,40.1762
2023-05-12T12:09:40.295Z,40.2806
2023-05-12T12:10:42.376Z,40.7710
2023-05-12T12:11:44.401Z,40.7508
2023-05-12T12:12:46.421Z,40.8853
2023-05-12T12:13:48.470Z,41.0016
2023-05-12T12:14:50.606Z,41.2869
2023-05-12T12:15:52.621Z,41.3009
2023-05-12T12:16:54.632Z,41.2080
2023-05-12T12:17:56.784Z,41.3322
2023-05-12T12:18:58.731Z,41.0072
2023-05-12T12:20:00.770Z,41.8024
2023-05-12T12:21:02.870Z,41.8168
2023-05-12T12:22:04.849Z,41.5467
2023-05-12T12:23:06.903Z,41.3833
2023-05-12T12:24:08.960Z,41.3376
2023-05-12T12:25:10.992Z,40.7701
2023-05-12T12:26:13.156Z,40.7141
2023-05-12T12:27:15.094Z,40.4861
2023-05-12T12:28:17.125Z,40.1544
2023-05-12T12:29:19.147Z,40.0245
2023-05-12T12:30:21.193Z,39.6762
2023-05-12T12:31:23.288Z,39.2973
2023-05-12T12:32:25.323Z,39.0397
2023-05-12T12:33:27.504Z,38.7220
2023-05-12T12:34:29.396Z,38.7445
2023-05-12T12:35:31.460Z,38.5744
2023-05-12T12:36:33.468Z,38.7823
2023-05-12T12:37:35.532Z,38.8180
2023-05-12T12:38:37.576Z,38.7234
2023-05-12T12:39:39.730Z,38.2783
2023-05-12T12:40:41.785Z,38.3102
2023-05-12T12:41:43.789Z,38.4137
2023-05-12T12:42:45.823Z,38.0347
2023-05-12T12:43:47.871Z,38.2943
2023-05-12T12:44:49.930Z,38.5937
2023-05-12T12:45:52.100Z,39.0730
2023-05-12T12:46:54.026Z,39.2377
2023-05-12T12:47:56.087Z,39.2786
2023-05-12T12:48:58.091Z,39.2868
2023-05-12T12:50:00.216Z,39.2845
2023-05-12T12:51:02.209Z,39.3519
2023-05-12T12:52:04.257Z,39.8120
2023-05-12T12:53:06.429Z,40.1669
2023-05-12T12:54:08.352Z,40.0537
2023-05-12T12:55:10.400Z,39.6623
2023-05-12T12:56:12.434Z,39.7267
2023-05-12T12:57:14.522Z,39.6574
2023-05-12T12:58:16.519Z,39.6004
2023-05-12T12:59:18.605Z,39.6213
2023-05-12T13:00:20.629Z,40.2206
2023-05-12T13:01:22.762Z,40.1765
2023-05-12T13:02:24.979Z,40.0270
2023-05-12T13:03:26.797Z,39.9940
2023-05-12T13:04:28.912Z,39.7376
2023-05-12T13:05:30.886Z,39.1672
2023-05-12T13:06:32.920Z,39.4085
2023-05-12T13:07:34.990Z,39.6581
2023-05-12T13:08:37.025Z,39.6214
2023-05-12T13:09:39.134Z,39.6550
2023-05-12T13:10:41.152Z,39.6962
2023-05-12T13:11:43.181Z,39.5341
2023-05-12T13:12:45.215Z,39.3383
2023-05-12T13:13:47.297Z,39.4230
2023-05-12T13:14:49.323Z,39.6451
2023-05-12T13:15:51.357Z,39.2626
2023-05-12T13:16:53.463Z,39.0449
2023-05-12T13:17:55.517Z,39.2271
2023-05-12T13:18:57.598Z,39.1572
2023-05-12T13:19:59.568Z,39.0060
2023-05-12T13:21:01.637Z,38.9923
2023-05-12T13:22:03.679Z,38.9361
2023-05-12T13:23:05.718Z,38.9127
2023-05-12T13:24:07.767Z,38.7163
2023-05-12T13:25:09.790Z,38.5727
2023-05-12T13:26:11.869Z,38.5470
2023-05-12T13:27:13.888Z,38.2051
2023-05-12T13:28:15.986Z,38.0920
2023-05-12T13:29:18.004Z,38.6234
2023-05-12T13:30:20.045Z,38.5407
2023-05-12T13:31:22.131Z,38.4840
2023-05-12T13:32:24.183Z,38.8134
2023-05-12T13:33:26.192Z,39.3533
2023-05-12T13:34:28.250Z,39.5212
2023-05-12T13:35:30.311Z,39.6126
2023-05-12T13:36:32.340Z,39.6442
2023-05-12T13:37:34.382Z,39.7142
2023-05-12T13:38:36.481Z,39.8510
2023-05-12T13:39:38.507Z,39.8963
2023-05-12T13:40:40.541Z,39.2941
2023-05-12T13:41:42.570Z,39.0788
2023-05-12T13:42:44.645Z,38.4898
2023-05-12T13:43:46.666Z,38.0562
2023-05-12T13:44:48.738Z,38.0696
2023-05-12T13:45:50.788Z,37.9323
2023-05-12T13:46:52.843Z,37.6489
2023-05-12T13:47:54.958Z,37.4295
2023-05-12T13:48:56.962Z,36.9552
2023-05-12T13:49:59.044Z,36.9814
2023-05-12T13:51:01.005Z,36.7892
2023-05-12T13:52:03.069Z,36.8465
2023-05-12T13:53:05.095Z,37.2723
2023-05-12T13:54:07.154Z,37.6356
2023-05-12T13:55:09.237Z,37.7334
2023-05-12T13:56:11.265Z,37.8617
2023-05-12T13:57:13.327Z,37.8740
2023-05-12T13:58:15.380Z,37.6343
2023-05-12T13:59:17.410Z,37.3604
2023-05-12T14:00:19.471Z,37.5733
2023-05-12T14:01:21.555Z,37.9334
2023-05-12T14:02:23.598Z,37.7767
2023-05-12T14:03:25.581Z,37.7504
2023-05-12T14:04:27.656Z,37.8571
2023-05-12T14:05:29.730Z,37.9126
2023-05-12T14:06:31.719Z,37.7731
2023-05-12T14:07:33.765Z,37.6137
2023-05-12T14:08:35.849Z,37.8168
2023-05-12T14:09:37.880Z,38.1108
2023-05-12T14:10:39.926Z,38.2618
2023-05-12T14:11:41.990Z,38.4584
2023-05-12T14:12:44.036Z,38.9102
2023-05-12T14:13:46.072Z,38.8923
2023-05-12T14:14:48.142Z,39.2842
2023-05-12T14:15:50.466Z,39.5197
2023-05-12T14:16:52.361Z,39.8633
2023-05-12T14:17:54.359Z,39.7926
2023-05-12T14:18:56.397Z,39.8103
2023-05-12T14:19:58.370Z,39.9237
2023-05-12T14:21:00.457Z,40.1078
2023-05-12T14:22:05.860Z,40.7060
2023-05-12T14:23:04.545Z,40.8705
2023-05-12T14:24:06.592Z,40.7103
2023-05-12T14:25:08.665Z,40.6317
2023-05-12T14:26:10.675Z,41.1349
2023-05-12T14:27:12.747Z,40.4951
2023-05-12T14:28:14.860Z,40.4860
2023-05-12T14:29:16.886Z,40.8413
2023-05-12T14:30:19.038Z,40.7641
2023-05-12T14:31:20.954Z,40.5191
2023-05-12T14:32:23.004Z,40.4508
2023-05-12T14:33:25.038Z,40.2206
2023-05-12T14:34:27.103Z,40.0489
2023-05-12T14:35:29.163Z,40.1441
2023-05-12T14:36:31.203Z,40.2870
2023-05-12T14:37:33.228Z,40.3057
2023-05-12T14:38:35.302Z,40.3739
2023-05-12T14:39:37.334Z,40.5407
2023-05-12T14:40:40.336Z,40.7143
2023-05-12T14:41:41.460Z,40.9947
2023-05-12T14:42:43.577Z,41.3917
2023-05-12T14:43:45.529Z,41.8090
2023-05-12T14:44:47.598Z,42.1947
2023-05-12T14:45:49.702Z,42.5719
2023-05-12T14:46:51.696Z,42.6260
2023-05-12T14:47:53.798Z,42.6577
2023-05-12T14:48:55.827Z,42.9710
2023-05-12T14:49:57.815Z,43.0334
2023-05-12T14:50:59.901Z,43.0805
2023-05-12T14:52:01.947Z,42.9482
2023-05-12T14:53:04.087Z,42.8757
2023-05-12T14:54:12.594Z,42.6364
2023-05-12T14:55:09.077Z,42.7102
2023-05-12T14:56:10.177Z,42.7216
2023-05-12T14:57:12.206Z,42.8596
2023-05-12T14:58:14.311Z,42.9050
2023-05-12T14:59:16.282Z,42.7343
2023-05-12T15:00:18.329Z,42.8651
2023-05-12T15:01:20.403Z,43.0314
2023-05-12T15:02:22.457Z,43.1963
2023-05-12T15:03:24.688Z,43.4740
2023-05-12T15:04:26.557Z,43.3252
2023-05-12T15:05:41.335Z,42.9687
2023-05-12T15:06:30.653Z,42.8753
2023-05-12T15:07:32.659Z,42.5327
2023-05-12T15:08:34.790Z,42.0809
2023-05-12T15:09:36.778Z,41.6959
2023-05-12T15:10:38.807Z,41.3897
2023-05-12T15:11:40.866Z,41.3610
2023-05-12T15:12:42.914Z,41.4431
2023-05-12T15:13:44.946Z,41.4308
2023-05-12T15:14:47.015Z,41.0998
2023-05-12T15:15:51.836Z,41.1103
2023-05-12T15:16:51.136Z,41.4350
2023-05-12T15:17:53.214Z,42.0808
2023-05-12T15:18:55.254Z,42.1778
2023-05-12T15:19:57.339Z,42.4117
2023-05-12T15:20:59.306Z,42.7337
2023-05-12T15:22:01.352Z,42.4758
2023-05-12T15:23:03.390Z,42.3572
2023-05-12T15:24:05.466Z,42.5161
2023-05-12T15:25:07.507Z,42.6821
2023-05-12T15:26:26.950Z,43.0637
2023-05-12T15:27:11.591Z,43.1204
2023-05-12T15:28:13.672Z,43.4449
2023-05-12T15:29:15.697Z,43.5506
2023-05-12T15:30:17.751Z,43.5428
2023-05-12T15:31:20.385Z,43.0052
2023-05-12T15:32:21.850Z,43.3367
2023-05-12T15:33:23.883Z,43.6193
2023-05-12T15:34:25.945Z,43.3293
2023-05-12T15:35:27.969Z,43.4138
2023-05-12T15:36:30.016Z,43.5856
2023-05-12T15:37:32.289Z,43.4738
2023-05-12T15:38:34.125Z,43.2492
2023-05-12T15:39:36.153Z,43.2667
2023-05-12T15:40:38.305Z,43.3386
2023-05-12T15:41:40.305Z,43.3454
2023-05-12T15:42:42.331Z,43.1888
2023-05-12T15:43:44.342Z,43.0059
2023-05-12T15:44:46.615Z,42.9189
2023-05-12T15:45:48.547Z,43.0835
2023-05-12T15:46:50.643Z,43.0818
2023-05-12T15:47:52.593Z,42.9444
2023-05-12T15:48:54.588Z,42.7759
2023-05-12T15:49:56.649Z,42.9557
2023-05-12T15:50:58.702Z,43.1685
2023-05-12T15:52:00.740Z,43.4535
2023-05-12T15:53:02.766Z,43.6251
2023-05-12T15:54:05.587Z,43.7002
2023-05-12T15:55:07.039Z,43.8396
2023-05-12T15:56:08.980Z,44.0167
2023-05-12T15:57:11.029Z,44.2697
2023-05-12T15:58:13.041Z,44.4633
2023-05-12T15:59:15.121Z,44.5406
2023-05-12T16:00:17.205Z,45.0146
2023-05-12T16:01:19.232Z,45.1664
2023-05-12T16:02:21.231Z,45.5039
2023-05-12T16:03:23.515Z,45.4581
2023-05-12T16:04:25.341Z,45.4112
2023-05-12T16:05:27.367Z,45.2650
2023-05-12T16:06:29.401Z,45.6502
2023-05-12T16:07:31.498Z,45.4368
2023-05-12T16:08:33.531Z,45.2276
2023-05-12T16:09:35.549Z,45.2341
2023-05-12T16:10:37.725Z,45.0704
2023-05-12T16:11:39.834Z,44.8756
2023-05-12T16:12:41.910Z,45.1438
2023-05-12T16:13:43.793Z,45.3786
2023-05-12T16:14:45.797Z,44.8944
2023-05-12T16:15:47.842Z,44.3879
2023-05-12T16:16:49.917Z,44.3804
2023-05-12T16:17:51.973Z,44.5296
2023-05-12T16:18:53.989Z,45.0382
2023-05-12T16:19:56.099Z,45.0554
2023-05-12T16:20:58.146Z,45.0275
2023-05-12T16:22:00.371Z,45.0534
2023-05-12T16:23:02.172Z,45.2205
2023-05-12T16:24:04.214Z,45.3660
2023-05-12T16:25:06.258Z,44.8977
2023-05-12T16:26:08.338Z,44.9483
2023-05-12T16:27:10.398Z,45.0896
2023-05-12T16:28:12.430Z,45.1286
2023-05-12T16:29:14.467Z,45.1279
2023-05-12T16:30:18.496Z,45.1263
2023-05-12T16:31:18.814Z,45.4724
2023-05-12T16:32:20.729Z,45.4384
2023-05-12T16:33:22.653Z,45.4391
2023-05-12T16:34:24.729Z,45.6092
2023-05-12T16:35:26.832Z,46.1594
2023-05-12T16:36:28.889Z,46.1571
2023-05-12T16:37:30.886Z,45.8702
2023-05-12T16:38:33.090Z,45.5690
2023-05-12T16:39:34.968Z,45.5454
2023-05-12T16:40:37.041Z,45.5888
2023-05-12T16:41:39.088Z,45.7653
2023-05-12T16:42:41.116Z,45.4673
2023-05-12T16:43:43.260Z,45.3945
2023-05-12T16:44:45.294Z,45.4216
2023-05-12T16:45:47.398Z,45.5319
2023-05-12T16:46:49.549Z,45.4480
2023-05-12T16:47:51.543Z,45.3236
2023-05-12T16:48:53.519Z,45.2297
2023-05-12T16:49:55.567Z,45.1623
2023-05-12T16:50:57.619Z,45.1435
2023-05-12T16:51:59.650Z,45.2296
2023-05-12T16:53:01.716Z,45.3823
2023-05-12T16:54:03.798Z,45.2559
2023-05-12T16:55:05.816Z,45.0047
2023-05-12T16:56:07.865Z,45.0947
2023-05-12T16:57:09.914Z,45.2839
2023-05-12T16:58:11.932Z,45.0766
2023-05-12T16:59:14.011Z,45.0043
2023-05-12T17:00:16.095Z,45.1161
2023-05-12T17:01:18.192Z,45.4133
2023-05-12T17:02:20.164Z,45.3016
2023-05-12T17:03:22.248Z,45.1461